Time;durP1;ratioP1;P1;durP2;ratioP2;P2;SDS_P1;SDS_P2;PMS_P1;PMS_P2;Temp;Humidity;BMP_temperature;BMP_pressure;BME280_temperature;BME280_humidity;BME280_pressure;Samples;Min_cycle;Max_cycle;Signal;HPM_P1;HPM_P2
2021/08/02 00:00:03;;;;;;;8.33;4.90;;;;;;;;;;5115160;28;20225;-82
2021/08/02 00:02:36;;;;;;;8.40;5.33;;;;;;;;;;5116012;28;20193;-82
2021/08/02 00:05:04;;;;;;;7.77;4.97;;;;;;;;;;5116403;28;20205;-82
2021/08/02 00:07:33;;;;;;;8.27;5.63;;;;;;;;;;5116346;28;20206;-82
2021/08/02 00:10:06;;;;;;;8.57;5.30;;;;;;;;;;5115142;28;20297;-82
2021/08/02 00:12:34;;;;;;;6.57;4.83;;;;;;;;;;5114970;27;20221;-82
2021/08/02 00:15:01;;;;;;;9.50;5.97;;;;;;;;;;5115186;28;20198;-82
2021/08/02 00:17:29;;;;;;;8.90;5.70;;;;;;;;;;5114860;28;20580;-82
2021/08/02 00:19:57;;;;;;;10.80;5.80;;;;;;;;;;5115082;28;20670;-82
2021/08/02 00:22:25;;;;;;;7.33;5.47;;;;;;;;;;5115237;28;20225;-82
2021/08/02 00:24:52;;;;;;;9.17;5.20;;;;;;;;;;5116016;28;20289;-82
2021/08/02 00:27:19;;;;;;;8.63;5.17;;;;;;;;;;5115953;28;20748;-82
2021/08/02 00:29:47;;;;;;;8.87;5.80;;;;;;;;;;5116460;28;20226;-82
2021/08/02 00:32:14;;;;;;;8.00;5.13;;;;;;;;;;5114653;28;20280;-82
2021/08/02 00:34:42;;;;;;;8.93;5.50;;;;;;;;;;5114288;28;20197;-82
2021/08/02 00:37:15;;;;;;;7.47;4.90;;;;;;;;;;5113683;28;20205;-83
2021/08/02 00:39:47;;;;;;;7.67;5.27;;;;;;;;;;5113717;28;20221;-82
2021/08/02 00:42:28;;;;;;;9.03;5.50;;;;;;;;;;5113310;28;20277;-83
2021/08/02 00:45:07;;;;;;;9.57;5.57;;;;;;;;;;5113184;28;20280;-83
2021/08/02 00:47:37;;;;;;;11.47;5.40;;;;;;;;;;5113376;28;20204;-82
2021/08/02 00:50:05;;;;;;;8.90;6.00;;;;;;;;;;5113581;27;20202;-82
2021/08/02 00:52:34;;;;;;;7.93;5.23;;;;;;;;;;5127483;27;20323;-83
2021/08/02 00:55:03;;;;;;;7.87;5.10;;;;;;;;;;5134189;27;20287;-82
2021/08/02 00:57:33;;;;;;;6.83;5.00;;;;;;;;;;5135095;27;20599;-82
2021/08/02 01:00:03;;;;;;;7.20;5.47;;;;;;;;;;5134693;27;20301;-82
2021/08/02 01:02:32;;;;;;;6.70;5.00;;;;;;;;;;5134644;27;20253;-82
2021/08/02 01:05:00;;;;;;;10.10;5.60;;;;;;;;;;5135087;27;20224;-82
2021/08/02 01:07:27;;;;;;;8.43;5.03;;;;;;;;;;5134609;27;20676;-82
2021/08/02 01:09:57;;;;;;;8.60;5.70;;;;;;;;;;5134686;27;20300;-82
2021/08/02 01:12:26;;;;;;;8.50;5.83;;;;;;;;;;5135031;27;20291;-82
2021/08/02 01:14:54;;;;;;;8.10;5.60;;;;;;;;;;5134412;27;20236;-83
2021/08/02 01:17:22;;;;;;;7.00;5.43;;;;;;;;;;5134885;27;20296;-82
2021/08/02 01:19:49;;;;;;;7.73;5.67;;;;;;;;;;5133790;27;20220;-82
2021/08/02 01:22:23;;;;;;;8.23;5.60;;;;;;;;;;5133777;27;20280;-82
2021/08/02 01:24:50;;;;;;;8.23;5.70;;;;;;;;;;5133049;27;20295;-82
2021/08/02 01:27:47;;;;;;;7.87;5.57;;;;;;;;;;5134041;27;20312;-82
2021/08/02 01:30:16;;;;;;;10.63;5.80;;;;;;;;;;5135545;27;20233;-82
2021/08/02 01:32:43;;;;;;;9.20;5.97;;;;;;;;;;5134474;27;20276;-82
2021/08/02 01:35:13;;;;;;;10.93;6.07;;;;;;;;;;5135393;27;20229;-82
2021/08/02 01:37:41;;;;;;;8.97;5.77;;;;;;;;;;5140502;27;20288;-82
2021/08/02 01:40:09;;;;;;;8.87;5.83;;;;;;;;;;5139982;27;20263;-81
2021/08/02 01:42:36;;;;;;;10.37;6.30;;;;;;;;;;5140122;27;20225;-82
2021/08/02 01:45:04;;;;;;;10.40;6.47;;;;;;;;;;5140039;27;20305;-82
2021/08/02 01:47:37;;;;;;;10.70;6.10;;;;;;;;;;5140255;27;20283;-82
2021/08/02 01:50:07;;;;;;;8.80;6.27;;;;;;;;;;5139897;27;20207;-82
2021/08/02 01:52:42;;;;;;;8.97;5.97;;;;;;;;;;5139258;27;20323;-82
2021/08/02 01:55:15;;;;;;;10.57;5.93;;;;;;;;;;5139935;27;20202;-83
2021/08/02 01:57:45;;;;;;;10.87;6.47;;;;;;;;;;5138938;27;20246;-82
2021/08/02 02:00:14;;;;;;;8.60;6.33;;;;;;;;;;5138282;27;20307;-81
2021/08/02 02:02:44;;;;;;;8.93;6.47;;;;;;;;;;5138189;27;20266;-82
2021/08/02 02:05:14;;;;;;;10.57;6.50;;;;;;;;;;5121581;27;20202;-83
2021/08/02 02:07:45;;;;;;;11.13;7.13;;;;;;;;;;5118981;28;20209;-82
2021/08/02 02:10:15;;;;;;;10.53;6.60;;;;;;;;;;5118418;28;20225;-81
2021/08/02 02:12:44;;;;;;;11.53;7.47;;;;;;;;;;5117217;28;20281;-83
2021/08/02 02:15:12;;;;;;;10.07;6.67;;;;;;;;;;5117281;28;20236;-83
2021/08/02 02:17:40;;;;;;;11.07;7.27;;;;;;;;;;5117469;28;20277;-82
2021/08/02 02:20:08;;;;;;;10.63;6.80;;;;;;;;;;5116376;28;20264;-82
2021/08/02 02:22:37;;;;;;;11.17;6.63;;;;;;;;;;5117858;28;20240;-82
2021/08/02 02:25:08;;;;;;;9.67;6.60;;;;;;;;;;5117617;28;20205;-82
2021/08/02 02:27:37;;;;;;;11.07;6.77;;;;;;;;;;5116611;28;20274;-82
2021/08/02 02:30:05;;;;;;;12.07;6.87;;;;;;;;;;5117003;28;20604;-82
2021/08/02 02:32:33;;;;;;;12.13;7.07;;;;;;;;;;5117515;28;20585;-82
2021/08/02 02:35:00;;;;;;;11.10;7.00;;;;;;;;;;5117332;28;20201;-82
2021/08/02 02:37:28;;;;;;;8.97;7.03;;;;;;;;;;5116574;28;20244;-82
2021/08/02 02:39:55;;;;;;;9.90;7.20;;;;;;;;;;5116387;28;20313;-82
2021/08/02 02:42:23;;;;;;;11.33;7.30;;;;;;;;;;5116932;28;20289;-82
2021/08/02 02:44:52;;;;;;;9.23;6.40;;;;;;;;;;5117234;28;20232;-82
2021/08/02 02:47:20;;;;;;;8.67;6.10;;;;;;;;;;5116640;28;20209;-82
2021/08/02 02:49:48;;;;;;;7.70;5.27;;;;;;;;;;5116359;28;20285;-82
2021/08/02 02:52:16;;;;;;;6.80;5.50;;;;;;;;;;5129347;27;20209;-82
2021/08/02 02:54:46;;;;;;;7.50;4.73;;;;;;;;;;5137611;27;20233;-82
2021/08/02 02:57:13;;;;;;;12.10;5.47;;;;;;;;;;5137293;27;20308;-82
2021/08/02 02:59:40;;;;;;;5.60;4.53;;;;;;;;;;5137301;27;20314;-82
2021/08/02 03:02:09;;;;;;;8.50;5.03;;;;;;;;;;5137770;27;20284;-82
2021/08/02 03:04:38;;;;;;;6.57;4.47;;;;;;;;;;5136240;27;20505;-82
2021/08/02 03:07:07;;;;;;;7.00;4.33;;;;;;;;;;5135493;27;20280;-82
2021/08/02 03:09:36;;;;;;;5.67;4.47;;;;;;;;;;5135798;27;20300;-82
2021/08/02 03:12:03;;;;;;;7.53;4.80;;;;;;;;;;5135745;27;20205;-82
2021/08/02 03:14:31;;;;;;;6.73;4.70;;;;;;;;;;5135696;27;20291;-82
2021/08/02 03:16:58;;;;;;;6.97;4.27;;;;;;;;;;5135852;27;20217;-82
2021/08/02 03:19:27;;;;;;;6.63;4.77;;;;;;;;;;5135496;27;20267;-82
2021/08/02 03:21:55;;;;;;;6.57;4.27;;;;;;;;;;5134746;27;20735;-82
2021/08/02 03:24:25;;;;;;;8.17;4.50;;;;;;;;;;5135310;27;20288;-82
2021/08/02 03:26:54;;;;;;;5.77;4.40;;;;;;;;;;5135287;27;20284;-82
2021/08/02 03:29:23;;;;;;;5.53;4.13;;;;;;;;;;5135477;27;20224;-82
2021/08/02 03:31:52;;;;;;;8.70;4.30;;;;;;;;;;5135445;27;20280;-82
2021/08/02 03:34:22;;;;;;;5.00;4.23;;;;;;;;;;5135049;27;20226;-82
2021/08/02 03:36:51;;;;;;;8.67;5.27;;;;;;;;;;5135262;27;20224;-82
2021/08/02 03:39:19;;;;;;;6.27;4.63;;;;;;;;;;5135291;27;20323;-82
2021/08/02 03:41:47;;;;;;;6.23;5.03;;;;;;;;;;5134989;27;20284;-82
2021/08/02 03:44:15;;;;;;;6.17;4.77;;;;;;;;;;5134895;27;20288;-82
2021/08/02 03:46:43;;;;;;;8.17;5.10;;;;;;;;;;5134710;27;20197;-82
2021/08/02 03:49:10;;;;;;;10.47;4.97;;;;;;;;;;5134814;27;20300;-82
2021/08/02 03:51:38;;;;;;;7.17;4.40;;;;;;;;;;5134457;27;20251;-82
2021/08/02 03:54:06;;;;;;;7.80;4.50;;;;;;;;;;5134617;27;20316;-82
2021/08/02 03:56:34;;;;;;;5.73;4.07;;;;;;;;;;5134784;27;20703;-82
2021/08/02 03:59:01;;;;;;;6.27;4.00;;;;;;;;;;5134135;27;20676;-82
2021/08/02 04:01:28;;;;;;;6.27;3.90;;;;;;;;;;5134742;27;20285;-82
2021/08/02 04:03:55;;;;;;;5.70;4.07;;;;;;;;;;5134406;27;20232;-82
2021/08/02 04:06:22;;;;;;;6.30;4.37;;;;;;;;;;5134782;27;20279;-82
2021/08/02 04:08:50;;;;;;;5.30;3.90;;;;;;;;;;5134275;27;20716;-82
2021/08/02 04:11:18;;;;;;;5.20;3.80;;;;;;;;;;5133479;27;20225;-82
2021/08/02 04:13:45;;;;;;;6.00;4.27;;;;;;;;;;5134102;27;20240;-82
2021/08/02 04:16:13;;;;;;;6.60;4.20;;;;;;;;;;5134193;27;20284;-81
2021/08/02 04:18:40;;;;;;;5.97;4.10;;;;;;;;;;5134236;27;20604;-82
2021/08/02 04:21:07;;;;;;;7.07;4.37;;;;;;;;;;5134204;27;20699;-82
2021/08/02 04:23:34;;;;;;;5.93;4.27;;;;;;;;;;5134356;27;20284;-82
2021/08/02 04:26:01;;;;;;;9.43;4.80;;;;;;;;;;5134417;27;20201;-82
2021/08/02 04:28:30;;;;;;;9.57;4.30;;;;;;;;;;5134144;27;20674;-81
2021/08/02 04:30:57;;;;;;;6.30;4.60;;;;;;;;;;5134324;27;20280;-82
2021/08/02 04:33:24;;;;;;;6.30;4.27;;;;;;;;;;5133801;27;20197;-82
2021/08/02 04:35:51;;;;;;;5.30;4.37;;;;;;;;;;5134183;27;20231;-82
2021/08/02 04:38:19;;;;;;;7.50;4.57;;;;;;;;;;5134279;27;20240;-82
2021/08/02 04:40:46;;;;;;;9.20;5.37;;;;;;;;;;5133793;27;20267;-82
2021/08/02 04:43:13;;;;;;;7.17;4.37;;;;;;;;;;5133980;27;20228;-82
2021/08/02 04:45:42;;;;;;;7.20;4.67;;;;;;;;;;5134001;27;20229;-82
2021/08/02 04:48:09;;;;;;;6.63;4.57;;;;;;;;;;5133707;27;20220;-81
2021/08/02 04:50:38;;;;;;;9.43;4.87;;;;;;;;;;5134235;27;20272;-82
2021/08/02 04:53:05;;;;;;;8.30;4.40;;;;;;;;;;5133282;27;20244;-82
2021/08/02 04:55:32;;;;;;;6.93;4.67;;;;;;;;;;5133678;27;20291;-82
2021/08/02 04:57:59;;;;;;;8.90;4.40;;;;;;;;;;5133376;27;20288;-82
2021/08/02 05:00:26;;;;;;;6.30;4.37;;;;;;;;;;5133395;27;20221;-82
2021/08/02 05:02:55;;;;;;;7.63;4.67;;;;;;;;;;5133578;27;20329;-82
2021/08/02 05:05:22;;;;;;;6.80;4.63;;;;;;;;;;5133721;27;20287;-82
2021/08/02 05:07:50;;;;;;;7.47;4.33;;;;;;;;;;5133495;27;20630;-82
2021/08/02 05:10:17;;;;;;;9.73;4.30;;;;;;;;;;5132465;27;20273;-82
2021/08/02 05:12:44;;;;;;;7.70;4.90;;;;;;;;;;5133518;27;20228;-82
2021/08/02 05:15:12;;;;;;;7.10;4.80;;;;;;;;;;5133328;27;20235;-82
2021/08/02 05:17:39;;;;;;;5.33;4.27;;;;;;;;;;5133026;27;20291;-82
2021/08/02 05:20:09;;;;;;;9.73;4.90;;;;;;;;;;5133173;27;20641;-82
2021/08/02 05:22:36;;;;;;;7.23;5.10;;;;;;;;;;5133198;27;20719;-82
2021/08/02 05:25:04;;;;;;;9.37;5.17;;;;;;;;;;5133236;27;20284;-82
2021/08/02 05:27:31;;;;;;;10.27;5.37;;;;;;;;;;5133299;27;20655;-82
2021/08/02 05:29:58;;;;;;;11.10;5.33;;;;;;;;;;5133186;27;20240;-82
2021/08/02 05:32:25;;;;;;;10.40;4.93;;;;;;;;;;5133031;27;20241;-82
2021/08/02 05:34:52;;;;;;;7.93;5.57;;;;;;;;;;5132796;27;20637;-83
2021/08/02 05:37:21;;;;;;;9.83;6.00;;;;;;;;;;5133424;27;20642;-82
2021/08/02 05:39:48;;;;;;;7.93;5.77;;;;;;;;;;5133382;27;20637;-82
2021/08/02 05:42:16;;;;;;;9.73;6.70;;;;;;;;;;5133209;27;20265;-82
2021/08/02 05:44:43;;;;;;;9.17;5.93;;;;;;;;;;5133249;27;20635;-82
2021/08/02 05:47:12;;;;;;;10.23;6.37;;;;;;;;;;5133113;27;20247;-82
2021/08/02 05:49:39;;;;;;;11.73;7.17;;;;;;;;;;5132926;27;20250;-82
2021/08/02 05:52:07;;;;;;;9.53;6.73;;;;;;;;;;5121901;27;20292;-82
2021/08/02 05:54:36;;;;;;;14.77;6.73;;;;;;;;;;5112376;28;20278;-82
2021/08/02 05:57:03;;;;;;;11.07;6.70;;;;;;;;;;5112366;28;20300;-82
2021/08/02 05:59:30;;;;;;;14.90;6.80;;;;;;;;;;5112274;28;20277;-82
2021/08/02 06:01:59;;;;;;;10.30;7.20;;;;;;;;;;5112332;28;20329;-82
2021/08/02 06:04:26;;;;;;;11.33;6.80;;;;;;;;;;5112250;28;20696;-82
2021/08/02 06:06:54;;;;;;;10.20;6.70;;;;;;;;;;5112363;28;20557;-82
2021/08/02 06:09:22;;;;;;;9.90;6.40;;;;;;;;;;5112110;28;20218;-82
2021/08/02 06:11:51;;;;;;;8.00;6.33;;;;;;;;;;5112031;28;20723;-82
2021/08/02 06:14:18;;;;;;;10.77;6.90;;;;;;;;;;5112016;28;20198;-82
2021/08/02 06:16:46;;;;;;;10.20;6.63;;;;;;;;;;5112341;28;20210;-82
2021/08/02 06:19:13;;;;;;;9.57;6.37;;;;;;;;;;5111172;28;20641;-82
2021/08/02 06:21:40;;;;;;;13.17;6.70;;;;;;;;;;5113585;28;20257;-82
2021/08/02 06:24:07;;;;;;;10.10;6.90;;;;;;;;;;5115802;27;20619;-82
2021/08/02 06:26:36;;;;;;;7.93;6.40;;;;;;;;;;5116050;28;20312;-82
2021/08/02 06:29:05;;;;;;;9.83;5.87;;;;;;;;;;5115654;27;20588;-82
2021/08/02 06:31:32;;;;;;;7.97;5.50;;;;;;;;;;5115962;28;20280;-82
2021/08/02 06:34:00;;;;;;;7.90;5.50;;;;;;;;;;5115990;27;20233;-82
2021/08/02 06:36:27;;;;;;;12.40;6.63;;;;;;;;;;5115443;28;20228;-82
2021/08/02 06:38:54;;;;;;;7.47;5.22;;;;;;;;;;5116161;28;20620;-82
2021/08/02 06:41:21;;;;;;;7.78;5.20;;;;;;;;;;5115597;28;20263;-82
2021/08/02 06:43:48;;;;;;;8.13;5.45;;;;;;;;;;5115780;28;20229;-82
2021/08/02 06:46:17;;;;;;;8.35;5.88;;;;;;;;;;5115872;28;20280;-82
2021/08/02 06:48:44;;;;;;;7.93;4.85;;;;;;;;;;5115739;28;20293;-82
2021/08/02 06:51:12;;;;;;;8.30;4.45;;;;;;;;;;5115604;28;20373;-81
2021/08/02 06:53:40;;;;;;;4.95;4.22;;;;;;;;;;5115394;28;20316;-82
2021/08/02 06:56:07;;;;;;;6.93;4.07;;;;;;;;;;5115624;27;20568;-82
2021/08/02 06:58:34;;;;;;;6.22;4.97;;;;;;;;;;5114933;28;20203;-83
2021/08/02 07:01:01;;;;;;;9.88;5.28;;;;;;;;;;5114816;28;20228;-82
2021/08/02 07:03:30;;;;;;;6.25;4.50;;;;;;;;;;5115169;28;20708;-82
2021/08/02 07:05:57;;;;;;;8.88;5.30;;;;;;;;;;5115552;28;20288;-83
2021/08/02 07:08:24;;;;;;;9.25;5.13;;;;;;;;;;5114808;28;20309;-82
2021/08/02 07:10:51;;;;;;;6.80;5.00;;;;;;;;;;5114988;28;20225;-82
2021/08/02 07:13:18;;;;;;;9.00;5.80;;;;;;;;;;5114799;27;20277;-82
2021/08/02 07:15:46;;;;;;;8.43;5.00;;;;;;;;;;5115277;28;20198;-82
2021/08/02 07:18:35;;;;;;;6.10;4.57;;;;;;;;;;5114722;28;20233;-82
2021/08/02 07:21:03;;;;;;;5.88;4.18;;;;;;;;;;5115165;28;20276;-82
2021/08/02 07:23:30;;;;;;;6.30;4.20;;;;;;;;;;5114884;28;20186;-82
2021/08/02 07:25:58;;;;;;;7.50;4.05;;;;;;;;;;5115071;28;20198;-82
2021/08/02 07:28:25;;;;;;;5.10;4.25;;;;;;;;;;5114747;28;20256;-82
2021/08/02 07:30:53;;;;;;;5.95;3.80;;;;;;;;;;5114955;28;20272;-82
2021/08/02 07:33:20;;;;;;;6.68;4.47;;;;;;;;;;5113617;28;20285;-82
2021/08/02 07:35:47;;;;;;;6.78;3.83;;;;;;;;;;5114934;28;20206;-82
2021/08/02 07:38:16;;;;;;;5.97;4.25;;;;;;;;;;5114772;27;20229;-82
2021/08/02 07:40:43;;;;;;;5.05;4.05;;;;;;;;;;5114822;28;20304;-82
2021/08/02 07:43:10;;;;;;;5.07;3.88;;;;;;;;;;5114465;28;20281;-82
2021/08/02 07:45:37;;;;;;;5.32;4.25;;;;;;;;;;5114768;28;20248;-82
2021/08/02 07:48:05;;;;;;;6.15;4.22;;;;;;;;;;5114409;28;20289;-82
2021/08/02 07:50:32;;;;;;;6.72;4.50;;;;;;;;;;5114356;28;20280;-82
2021/08/02 07:52:59;;;;;;;6.80;4.13;;;;;;;;;;5113680;28;20257;-82
2021/08/02 07:55:28;;;;;;;7.03;4.40;;;;;;;;;;5114109;27;20229;-82
2021/08/02 07:57:55;;;;;;;5.93;4.32;;;;;;;;;;5114431;27;20229;-83
2021/08/02 08:00:23;;;;;;;8.38;4.70;;;;;;;;;;5114133;28;20199;-82
2021/08/02 08:02:50;;;;;;;5.97;4.47;;;;;;;;;;5114282;27;20206;-82
2021/08/02 08:05:18;;;;;;;6.70;4.40;;;;;;;;;;5113958;28;20320;-82
2021/08/02 08:07:47;;;;;;;8.23;4.65;;;;;;;;;;5114329;27;20226;-82
2021/08/02 08:10:15;;;;;;;9.35;4.70;;;;;;;;;;5113791;28;20301;-82
2021/08/02 08:12:44;;;;;;;6.95;4.57;;;;;;;;;;5113945;28;20244;-82
2021/08/02 08:15:12;;;;;;;6.45;4.22;;;;;;;;;;5114091;28;20248;-82
2021/08/02 08:17:39;;;;;;;7.20;4.35;;;;;;;;;;5114095;28;20198;-82
2021/08/02 08:20:07;;;;;;;7.22;4.82;;;;;;;;;;5114011;27;20284;-82
2021/08/02 08:22:35;;;;;;;8.07;4.47;;;;;;;;;;5113361;28;20309;-82
2021/08/02 08:25:02;;;;;;;6.25;4.28;;;;;;;;;;5113669;28;20197;-82
2021/08/02 08:27:29;;;;;;;5.68;4.38;;;;;;;;;;5113620;28;20305;-82
2021/08/02 08:29:58;;;;;;;5.45;3.85;;;;;;;;;;5113513;28;20228;-83
2021/08/02 08:32:25;;;;;;;8.45;4.50;;;;;;;;;;5113335;28;20716;-83
2021/08/02 08:34:53;;;;;;;7.43;3.85;;;;;;;;;;5113592;27;20277;-82
2021/08/02 08:37:20;;;;;;;5.43;4.05;;;;;;;;;;5113161;28;20744;-83
2021/08/02 08:39:47;;;;;;;4.60;3.95;;;;;;;;;;5113233;28;20229;-82
2021/08/02 08:42:14;;;;;;;7.65;4.28;;;;;;;;;;5113178;28;20225;-83
2021/08/02 08:44:42;;;;;;;6.70;4.10;;;;;;;;;;5113328;28;20229;-82
2021/08/02 08:47:11;;;;;;;5.57;4.10;;;;;;;;;;5113391;28;20284;-82
2021/08/02 08:49:39;;;;;;;8.55;4.20;;;;;;;;;;5113165;28;20201;-82
2021/08/02 08:52:07;;;;;;;8.23;4.57;;;;;;;;;;5124220;27;20239;-82
2021/08/02 08:54:34;;;;;;;5.10;4.20;;;;;;;;;;5133604;27;20284;-82
2021/08/02 08:57:01;;;;;;;5.47;4.32;;;;;;;;;;5133723;27;20246;-82
2021/08/02 08:59:28;;;;;;;6.18;4.50;;;;;;;;;;5133492;27;20251;-82
2021/08/02 09:02:02;;;;;;;5.00;3.70;;;;;;;;;;5133623;27;20263;-83
2021/08/02 09:04:30;;;;;;;6.57;4.35;;;;;;;;;;5133746;27;20201;-82
2021/08/02 09:06:59;;;;;;;4.13;3.67;;;;;;;;;;5133845;27;20283;-81
2021/08/02 09:09:28;;;;;;;6.75;4.25;;;;;;;;;;5133800;27;20311;-82
2021/08/02 09:12:10;;;;;;;5.28;4.15;;;;;;;;;;5134740;27;20220;-82
2021/08/02 09:14:38;;;;;;;8.48;3.83;;;;;;;;;;5135717;27;20300;-83
2021/08/02 09:17:05;;;;;;;4.90;3.97;;;;;;;;;;5136096;27;20233;-83
2021/08/02 09:19:43;;;;;;;7.20;4.03;;;;;;;;;;5134169;27;20276;-83
2021/08/02 09:22:11;;;;;;;5.40;3.70;;;;;;;;;;5134787;27;20221;-83
2021/08/02 09:24:39;;;;;;;4.70;3.70;;;;;;;;;;5133630;27;20258;-83
2021/08/02 09:27:06;;;;;;;5.78;3.90;;;;;;;;;;5134418;27;20300;-83
2021/08/02 09:29:34;;;;;;;5.88;4.07;;;;;;;;;;5134277;27;20300;-83
2021/08/02 09:32:02;;;;;;;5.35;4.00;;;;;;;;;;5134724;27;20279;-83
2021/08/02 09:34:29;;;;;;;5.75;4.07;;;;;;;;;;5134717;27;20291;-83
2021/08/02 09:36:58;;;;;;;6.72;4.30;;;;;;;;;;5134181;27;20227;-83
2021/08/02 09:39:30;;;;;;;6.78;4.03;;;;;;;;;;5134483;27;20204;-83
2021/08/02 09:42:03;;;;;;;6.03;4.50;;;;;;;;;;5134794;27;20221;-83
2021/08/02 09:44:30;;;;;;;7.07;5.10;;;;;;;;;;5134931;27;20201;-82
2021/08/02 09:46:58;;;;;;;5.07;4.15;;;;;;;;;;5133833;27;20292;-83
2021/08/02 09:49:25;;;;;;;6.43;5.05;;;;;;;;;;5133193;27;20231;-83
2021/08/02 09:51:53;;;;;;;7.68;5.50;;;;;;;;;;5132358;27;20197;-83
2021/08/02 09:54:25;;;;;;;5.95;4.90;;;;;;;;;;5133148;27;20654;-83
2021/08/02 09:56:53;;;;;;;7.40;4.97;;;;;;;;;;5135104;27;20239;-83
2021/08/02 09:59:20;;;;;;;7.53;4.88;;;;;;;;;;5137226;27;20284;-83
2021/08/02 10:01:49;;;;;;;6.18;4.80;;;;;;;;;;5136891;27;20316;-83
2021/08/02 10:04:16;;;;;;;8.18;5.22;;;;;;;;;;5136850;27;20204;-83
2021/08/02 10:06:43;;;;;;;6.22;4.95;;;;;;;;;;5136531;27;20228;-84
2021/08/02 10:09:12;;;;;;;5.53;4.80;;;;;;;;;;5137020;27;20330;-83
2021/08/02 10:11:41;;;;;;;6.07;4.22;;;;;;;;;;5136596;27;20579;-83
2021/08/02 10:14:09;;;;;;;6.30;4.78;;;;;;;;;;5137057;27;20297;-83
2021/08/02 10:16:38;;;;;;;6.43;4.75;;;;;;;;;;5136562;27;20587;-83
2021/08/02 10:19:06;;;;;;;5.30;4.78;;;;;;;;;;5137037;27;20258;-83
2021/08/02 10:21:40;;;;;;;6.70;4.85;;;;;;;;;;5136000;27;20223;-83
2021/08/02 10:24:08;;;;;;;5.47;4.40;;;;;;;;;;5136786;27;20283;-83
2021/08/02 10:26:36;;;;;;;5.35;4.82;;;;;;;;;;5136700;27;20279;-83
2021/08/02 10:29:07;;;;;;;7.57;5.05;;;;;;;;;;5136664;27;20284;-83
2021/08/02 10:31:43;;;;;;;6.55;4.38;;;;;;;;;;5136756;27;20194;-84
2021/08/02 10:34:14;;;;;;;5.57;4.85;;;;;;;;;;5136314;27;20201;-84
2021/08/02 10:36:42;;;;;;;6.28;4.75;;;;;;;;;;5136097;27;20201;-83
2021/08/02 10:39:09;;;;;;;5.47;4.63;;;;;;;;;;5136548;27;20201;-83
2021/08/02 10:41:36;;;;;;;6.53;4.70;;;;;;;;;;5135951;27;20305;-83
2021/08/02 10:44:14;;;;;;;6.45;4.45;;;;;;;;;;5136379;27;20280;-83
2021/08/02 10:46:41;;;;;;;4.72;4.07;;;;;;;;;;5136312;27;20563;-84
2021/08/02 10:49:10;;;;;;;6.72;4.55;;;;;;;;;;5136099;27;20228;-83
2021/08/02 10:51:46;;;;;;;5.63;4.65;;;;;;;;;;5128505;27;20244;-83
2021/08/02 10:54:13;;;;;;;6.75;4.63;;;;;;;;;;5115319;28;20233;-83
2021/08/02 10:56:40;;;;;;;5.82;4.85;;;;;;;;;;5115726;28;20240;-83
2021/08/02 10:59:08;;;;;;;4.40;3.90;;;;;;;;;;5115531;28;20285;-83
2021/08/02 11:01:38;;;;;;;5.28;4.55;;;;;;;;;;5115028;28;20261;-82
2021/08/02 11:04:11;;;;;;;7.70;4.30;;;;;;;;;;5115063;28;20237;-83
2021/08/02 11:06:39;;;;;;;7.07;4.75;;;;;;;;;;5115061;28;20289;-83
2021/08/02 11:09:06;;;;;;;6.05;4.53;;;;;;;;;;5113789;28;20313;-83
2021/08/02 11:11:34;;;;;;;7.45;4.78;;;;;;;;;;5115253;27;20337;-83
2021/08/02 11:14:08;;;;;;;4.43;3.88;;;;;;;;;;5115381;27;20217;-83
2021/08/02 11:16:44;;;;;;;4.00;3.60;;;;;;;;;;5115267;28;20194;-83
2021/08/02 11:19:18;;;;;;;5.53;3.70;;;;;;;;;;5114930;28;20240;-83
2021/08/02 11:21:46;;;;;;;5.35;3.65;;;;;;;;;;5114849;28;20225;-83
2021/08/02 11:24:14;;;;;;;4.35;3.55;;;;;;;;;;5114580;28;20602;-83
2021/08/02 11:26:48;;;;;;;4.10;3.05;;;;;;;;;;5115004;28;20232;-83
2021/08/02 11:29:19;;;;;;;5.05;3.30;;;;;;;;;;5114734;28;20233;-83
2021/08/02 11:31:55;;;;;;;4.40;3.38;;;;;;;;;;5114621;28;20741;-82
2021/08/02 11:34:23;;;;;;;4.43;3.05;;;;;;;;;;5114440;28;20229;-83
2021/08/02 11:36:57;;;;;;;4.03;3.30;;;;;;;;;;5114384;28;20737;-83
2021/08/02 11:39:25;;;;;;;4.78;3.13;;;;;;;;;;5114777;28;20236;-83
2021/08/02 11:42:00;;;;;;;4.43;2.97;;;;;;;;;;5114249;28;20328;-82
2021/08/02 11:44:28;;;;;;;4.40;2.78;;;;;;;;;;5114684;28;20248;-83
2021/08/02 11:46:57;;;;;;;3.00;2.70;;;;;;;;;;5114617;28;20233;-83
2021/08/02 11:49:25;;;;;;;3.55;2.67;;;;;;;;;;5114239;28;20233;-82
2021/08/02 11:51:52;;;;;;;3.75;2.83;;;;;;;;;;5114247;28;20288;-82
2021/08/02 11:54:20;;;;;;;4.68;3.20;;;;;;;;;;5113983;27;20229;-83
2021/08/02 11:56:47;;;;;;;4.88;3.30;;;;;;;;;;5114058;28;20228;-82
2021/08/02 11:59:20;;;;;;;6.53;3.55;;;;;;;;;;5114276;28;20346;-83
2021/08/02 12:01:48;;;;;;;4.50;2.92;;;;;;;;;;5113667;28;20198;-82
2021/08/02 12:04:17;;;;;;;4.10;3.53;;;;;;;;;;5114267;28;20237;-82
2021/08/02 12:06:48;;;;;;;4.45;2.97;;;;;;;;;;5114223;27;20205;-83
2021/08/02 12:09:15;;;;;;;4.13;3.25;;;;;;;;;;5114004;28;20268;-83
2021/08/02 12:11:44;;;;;;;4.60;2.80;;;;;;;;;;5114009;28;20276;-82
2021/08/02 12:14:11;;;;;;;4.03;3.03;;;;;;;;;;5114041;28;20691;-82
2021/08/02 12:16:38;;;;;;;4.43;3.30;;;;;;;;;;5113721;28;20253;-83
2021/08/02 12:19:07;;;;;;;4.32;2.95;;;;;;;;;;5113564;28;20282;-83
2021/08/02 12:21:36;;;;;;;4.90;3.08;;;;;;;;;;5113880;28;20238;-83
2021/08/02 12:24:07;;;;;;;3.50;3.03;;;;;;;;;;5113727;28;20198;-84
2021/08/02 12:26:36;;;;;;;4.35;3.15;;;;;;;;;;5113568;28;20284;-83
2021/08/02 12:29:03;;;;;;;4.60;2.85;;;;;;;;;;5113640;28;20570;-83
2021/08/02 12:31:31;;;;;;;5.80;3.60;;;;;;;;;;5113215;28;20748;-83
2021/08/02 12:33:58;;;;;;;6.00;3.78;;;;;;;;;;5113518;27;20285;-82
2021/08/02 12:36:25;;;;;;;7.85;3.92;;;;;;;;;;5113611;28;20288;-83
2021/08/02 12:38:54;;;;;;;5.00;3.88;;;;;;;;;;5113866;28;20292;-83
2021/08/02 12:41:22;;;;;;;4.57;3.50;;;;;;;;;;5113383;28;20194;-82
2021/08/02 12:43:53;;;;;;;6.25;3.88;;;;;;;;;;5113234;28;20312;-83
2021/08/02 12:46:20;;;;;;;4.25;3.42;;;;;;;;;;5112981;28;20209;-82
2021/08/02 12:48:47;;;;;;;4.55;3.50;;;;;;;;;;5113361;28;20202;-82
2021/08/02 12:51:14;;;;;;;5.32;3.10;;;;;;;;;;5112967;27;20198;-82
2021/08/02 12:53:42;;;;;;;3.17;2.58;;;;;;;;;;5112866;28;20661;-83
2021/08/02 12:56:10;;;;;;;3.17;2.25;;;;;;;;;;5113086;28;20201;-83
2021/08/02 12:58:38;;;;;;;3.85;2.70;;;;;;;;;;5113240;28;20288;-83
2021/08/02 13:01:08;;;;;;;2.65;2.30;;;;;;;;;;5112746;28;20202;-83
2021/08/02 13:03:35;;;;;;;2.95;2.10;;;;;;;;;;5113115;28;20321;-83
2021/08/02 13:06:02;;;;;;;2.35;1.90;;;;;;;;;;5113100;27;20225;-83
2021/08/02 13:08:30;;;;;;;2.80;2.10;;;;;;;;;;5113129;28;20248;-83
2021/08/02 13:10:57;;;;;;;2.95;2.08;;;;;;;;;;5112896;28;20200;-83
2021/08/02 13:13:25;;;;;;;3.40;2.33;;;;;;;;;;5112774;28;20234;-83
2021/08/02 13:15:52;;;;;;;2.53;2.10;;;;;;;;;;5112817;28;20233;-83
2021/08/02 13:18:20;;;;;;;3.67;2.20;;;;;;;;;;5113013;28;20229;-83
2021/08/02 13:20:47;;;;;;;2.40;2.20;;;;;;;;;;5112568;28;20245;-83
2021/08/02 13:23:29;;;;;;;3.10;2.47;;;;;;;;;;5112726;28;20308;-83
2021/08/02 13:28:43;;;;;;;3.78;2.80;;;;;;;;;;5112648;28;20225;-83
2021/08/02 13:31:11;;;;;;;3.15;2.03;;;;;;;;;;5111654;28;20659;-83
2021/08/02 13:33:38;;;;;;;2.05;1.88;;;;;;;;;;5112822;28;20233;-83
2021/08/02 13:36:05;;;;;;;3.55;1.80;;;;;;;;;;5112488;28;20280;-83
2021/08/02 13:38:32;;;;;;;2.20;1.70;;;;;;;;;;5112742;28;20292;-83
2021/08/02 13:41:00;;;;;;;3.15;2.10;;;;;;;;;;5112902;28;20727;-82
2021/08/02 13:43:27;;;;;;;2.63;1.90;;;;;;;;;;5112595;28;20311;-83
2021/08/02 13:45:55;;;;;;;3.15;2.28;;;;;;;;;;5112827;28;20294;-83
2021/08/02 13:48:23;;;;;;;3.78;2.60;;;;;;;;;;5112619;28;20274;-82
2021/08/02 13:50:52;;;;;;;3.28;2.20;;;;;;;;;;5112840;28;20585;-83
2021/08/02 13:53:19;;;;;;;4.85;2.85;;;;;;;;;;5132885;27;20229;-82
2021/08/02 13:55:47;;;;;;;3.53;2.53;;;;;;;;;;5132783;27;20224;-83
2021/08/02 13:58:14;;;;;;;3.35;2.67;;;;;;;;;;5132641;27;20200;-83
2021/08/02 14:00:41;;;;;;;4.45;2.78;;;;;;;;;;5133090;27;20208;-83
2021/08/02 14:03:10;;;;;;;2.90;2.20;;;;;;;;;;5133027;27;20305;-83
2021/08/02 14:05:39;;;;;;;3.90;2.53;;;;;;;;;;5133166;27;20231;-83
2021/08/02 14:08:07;;;;;;;3.08;2.20;;;;;;;;;;5132583;27;20721;-82
2021/08/02 14:10:34;;;;;;;2.67;2.17;;;;;;;;;;5133099;27;20199;-82
2021/08/02 14:13:03;;;;;;;2.67;2.45;;;;;;;;;;5132666;27;20284;-82
2021/08/02 14:15:34;;;;;;;5.05;2.33;;;;;;;;;;5132919;27;20196;-83
2021/08/02 14:18:04;;;;;;;2.30;2.10;;;;;;;;;;5132619;27;20288;-83
2021/08/02 14:20:33;;;;;;;3.03;2.00;;;;;;;;;;5132864;27;20283;-83
2021/08/02 14:23:01;;;;;;;2.08;1.80;;;;;;;;;;5132846;27;20840;-83
2021/08/02 14:25:28;;;;;;;2.30;2.10;;;;;;;;;;5132639;27;20282;-83
2021/08/02 14:27:56;;;;;;;2.60;2.03;;;;;;;;;;5132291;27;20240;-83
2021/08/02 14:30:23;;;;;;;2.10;1.90;;;;;;;;;;5132792;27;20238;-83
2021/08/02 14:32:51;;;;;;;2.40;2.20;;;;;;;;;;5132495;27;20648;-83
2021/08/02 14:35:18;;;;;;;2.75;2.00;;;;;;;;;;5132664;27;20198;-83
2021/08/02 14:37:47;;;;;;;2.78;2.38;;;;;;;;;;5132660;27;20236;-83
2021/08/02 14:40:15;;;;;;;3.83;2.90;;;;;;;;;;5132807;27;20232;-83
2021/08/02 14:42:44;;;;;;;2.63;2.40;;;;;;;;;;5133854;27;20256;-83
2021/08/02 14:45:12;;;;;;;2.17;1.98;;;;;;;;;;5136339;27;20193;-83
2021/08/02 14:47:39;;;;;;;3.03;2.22;;;;;;;;;;5136221;27;20638;-83
2021/08/02 14:50:08;;;;;;;4.05;2.50;;;;;;;;;;5135932;27;20751;-83